Time;durP1;ratioP1;P1;durP2;ratioP2;P2;SDS_P1;SDS_P2;PMS_P1;PMS_P2;Temp;Humidity;BMP_temperature;BMP_pressure;BME280_temperature;BME280_humidity;BME280_pressure;Samples;Min_cycle;Max_cycle;Signal;HPM_P1;HPM_P2
2022/10/21 00:02:07;;;;;;;32.83;28.60;;;14.10;99.90;;;;;;5113334;28;20456;-71
2022/10/21 00:04:34;;;;;;;33.47;29.90;;;14.10;99.90;;;;;;5108981;28;20942;-70
2022/10/21 00:07:02;;;;;;;31.33;28.03;;;14.10;99.90;;;;;;5106409;28;20472;-69
2022/10/21 00:09:29;;;;;;;31.63;28.20;;;14.00;99.90;;;;;;5110331;28;20553;-70
2022/10/21 00:11:56;;;;;;;32.17;28.17;;;14.00;99.90;;;;;;5110453;28;20693;-69
2022/10/21 00:14:23;;;;;;;49.90;28.70;;;13.90;99.90;;;;;;5098002;28;20954;-69
2022/10/21 00:16:50;;;;;;;31.70;26.07;;;13.90;99.90;;;;;;5111799;28;20460;-70
2022/10/21 00:19:17;;;;;;;30.43;27.33;;;13.80;99.90;;;;;;5109660;28;20469;-70
2022/10/21 00:21:44;;;;;;;30.40;27.00;;;13.80;99.90;;;;;;5102375;28;20454;-70
2022/10/21 00:24:12;;;;;;;39.00;27.70;;;13.80;99.90;;;;;;5109190;28;20476;-69
2022/10/21 00:26:39;;;;;;;34.00;27.40;;;13.80;99.90;;;;;;5107942;28;20850;-70
2022/10/21 00:29:06;;;;;;;36.00;28.80;;;13.70;99.90;;;;;;5112869;28;20469;-70
2022/10/21 00:31:34;;;;;;;33.00;27.10;;;13.70;99.90;;;;;;5110298;28;20457;-69
2022/10/21 00:34:01;;;;;;;33.90;27.40;;;13.70;99.90;;;;;;5111961;28;20569;-69
2022/10/21 00:36:27;;;;;;;31.33;27.97;;;13.60;99.90;;;;;;5103093;28;20456;-70
2022/10/21 00:38:56;;;;;;;29.23;26.30;;;13.60;99.90;;;;;;5101825;28;20446;-70
2022/10/21 00:41:25;;;;;;;31.43;27.27;;;13.60;99.90;;;;;;5110557;28;20461;-70
2022/10/21 00:44:00;;;;;;;34.43;27.47;;;13.50;99.90;;;;;;5110338;28;20462;-70
2022/10/21 00:46:37;;;;;;;30.80;27.63;;;13.50;99.90;;;;;;5112103;28;20857;-68
2022/10/21 00:49:08;;;;;;;28.77;25.83;;;13.50;99.90;;;;;;5094685;28;20831;-71
2022/10/21 00:51:36;;;;;;;35.63;25.77;;;13.50;99.90;;;;;;5108056;28;20465;-70
2022/10/21 00:54:04;;;;;;;28.60;25.90;;;13.40;99.90;;;;;;5109299;28;20483;-71
2022/10/21 00:56:34;;;;;;;32.00;24.40;;;13.40;99.90;;;;;;5113677;28;20453;-70
2022/10/21 00:59:03;;;;;;;29.40;25.23;;;13.30;99.90;;;;;;5111886;28;20469;-68
2022/10/21 01:01:30;;;;;;;26.30;23.57;;;13.30;99.90;;;;;;5101458;27;20460;-70
2022/10/21 01:03:57;;;;;;;25.07;22.67;;;13.30;99.90;;;;;;5098753;27;20492;-69
2022/10/21 01:06:26;;;;;;;28.43;25.30;;;13.30;99.90;;;;;;5116941;27;20460;-68
2022/10/21 01:08:54;;;;;;;29.20;24.87;;;13.30;99.90;;;;;;5114100;27;20821;-70
2022/10/21 01:11:22;;;;;;;30.20;22.33;;;13.30;99.90;;;;;;5112020;27;20449;-70
2022/10/21 01:14:10;;;;;;;25.70;22.97;;;13.30;99.90;;;;;;5113450;27;20449;-69
2022/10/21 01:16:44;;;;;;;24.80;21.23;;;13.30;99.90;;;;;;5094781;28;20467;-69
2022/10/21 01:19:29;;;;;;;24.47;22.27;;;13.30;99.90;;;;;;5116538;27;20468;-69
2022/10/21 01:22:02;;;;;;;25.37;22.70;;;13.20;99.90;;;;;;5115851;27;20459;-68
2022/10/21 01:24:52;;;;;;;25.83;22.63;;;13.20;99.90;;;;;;5112909;27;20573;-68
2022/10/21 01:27:38;;;;;;;26.90;22.60;;;13.20;99.90;;;;;;5115990;27;20526;-68
2022/10/21 01:30:27;;;;;;;23.33;20.30;;;13.20;99.90;;;;;;5113707;27;20456;-68
2022/10/21 01:33:27;;;;;;;23.00;20.70;;;13.20;99.90;;;;;;5102358;27;20450;-68
2022/10/21 01:35:58;;;;;;;24.60;20.60;;;13.10;99.90;;;;;;5064090;28;20454;-70
2022/10/21 01:38:34;;;;;;;21.43;19.40;;;13.10;99.90;;;;;;5099458;27;20452;-70
2022/10/21 01:41:08;;;;;;;21.80;20.10;;;13.10;99.90;;;;;;5097510;27;20827;-70
2022/10/21 01:43:40;;;;;;;22.30;19.83;;;13.10;99.90;;;;;;5109558;27;20505;-70
2022/10/21 01:46:13;;;;;;;23.30;19.33;;;13.10;99.90;;;;;;5106585;27;20572;-69
2022/10/21 01:48:45;;;;;;;18.97;17.27;;;13.00;99.90;;;;;;5098605;27;20499;-70
2022/10/21 01:51:13;;;;;;;20.47;18.53;;;13.00;99.90;;;;;;5108370;27;20488;-71
2022/10/21 01:53:44;;;;;;;19.33;17.90;;;13.10;99.90;;;;;;5107361;27;20499;-70
2022/10/21 01:56:14;;;;;;;21.83;19.80;;;13.10;99.90;;;;;;5106943;27;20469;-69
2022/10/21 01:58:44;;;;;;;20.60;18.80;;;13.10;99.90;;;;;;5110778;27;20463;-69
2022/10/21 02:01:15;;;;;;;21.90;19.20;;;13.10;99.90;;;;;;5114531;27;20453;-68
2022/10/21 02:03:47;;;;;;;21.27;19.57;;;13.10;99.90;;;;;;5095320;27;20477;-70
2022/10/21 02:06:14;;;;;;;20.87;18.87;;;13.10;99.90;;;;;;5108885;27;21170;-69
2022/10/21 02:08:43;;;;;;;19.47;17.57;;;13.10;99.90;;;;;;5109494;27;21231;-69
2022/10/21 02:11:11;;;;;;;19.20;17.80;;;13.10;99.90;;;;;;5114883;27;20824;-71
2022/10/21 02:13:43;;;;;;;19.83;17.67;;;13.10;99.90;;;;;;5112132;27;20445;-69
2022/10/21 02:16:17;;;;;;;21.43;19.17;;;13.10;99.90;;;;;;5107860;27;20909;-69
2022/10/21 02:18:44;;;;;;;20.00;18.37;;;13.00;99.90;;;;;;5111887;27;20453;-69
2022/10/21 02:21:16;;;;;;;18.50;17.10;;;13.00;99.90;;;;;;5112169;27;20931;-68
2022/10/21 02:23:50;;;;;;;19.73;18.33;;;13.00;99.90;;;;;;5103865;27;20462;-70
2022/10/21 02:26:18;;;;;;;21.07;19.10;;;13.00;99.90;;;;;;5113874;27;20495;-70
2022/10/21 02:28:46;;;;;;;19.50;17.90;;;13.00;99.90;;;;;;5114774;27;20491;-70
2022/10/21 02:31:34;;;;;;;19.40;18.10;;;12.90;99.90;;;;;;5114114;27;20469;-70
2022/10/21 02:34:10;;;;;;;19.80;18.50;;;12.90;99.90;;;;;;5108635;27;20510;-70
2022/10/21 02:36:48;;;;;;;19.77;18.43;;;12.90;99.90;;;;;;5097483;27;20964;-71
2022/10/21 02:39:22;;;;;;;20.17;18.63;;;12.90;99.90;;;;;;5103795;27;20464;-69
2022/10/21 02:41:51;;;;;;;20.70;19.10;;;12.90;99.90;;;;;;5097240;27;20458;-70
2022/10/21 02:44:18;;;;;;;19.90;18.57;;;12.90;99.90;;;;;;5116007;27;20483;-71
2022/10/21 02:46:47;;;;;;;20.07;18.67;;;12.90;99.90;;;;;;5110747;27;20835;-68
2022/10/21 02:49:14;;;;;;;19.80;18.40;;;12.80;99.90;;;;;;5100495;27;21076;-71
2022/10/21 02:51:42;;;;;;;21.57;19.13;;;12.80;99.90;;;;;;5103095;27;20456;-69
2022/10/21 02:54:09;;;;;;;21.40;19.53;;;12.80;99.90;;;;;;5109453;27;21126;-70
2022/10/21 02:56:36;;;;;;;20.63;19.03;;;12.80;99.90;;;;;;5114011;27;20453;-71
2022/10/21 02:59:05;;;;;;;21.00;19.30;;;12.70;99.90;;;;;;5112859;27;20468;-70
2022/10/21 03:01:32;;;;;;;23.83;18.70;;;12.80;99.90;;;;;;5108328;27;20458;-69
2022/10/21 03:04:00;;;;;;;21.10;19.23;;;12.90;99.90;;;;;;5111780;27;21053;-69
2022/10/21 03:06:27;;;;;;;19.33;17.37;;;12.90;99.90;;;;;;5111809;27;20496;-69
2022/10/21 03:08:53;;;;;;;19.97;18.30;;;12.90;99.90;;;;;;5112202;27;20531;-71
2022/10/21 03:11:20;;;;;;;20.37;18.50;;;12.90;99.90;;;;;;5109857;27;20453;-71
2022/10/21 03:13:48;;;;;;;18.93;17.57;;;13.00;99.90;;;;;;5115261;27;20896;-70
2022/10/21 03:16:15;;;;;;;19.77;17.97;;;13.00;99.90;;;;;;5106645;27;20552;-71
2022/10/21 03:18:42;;;;;;;19.80;18.30;;;12.90;99.90;;;;;;5112296;27;20960;-70
2022/10/21 03:21:11;;;;;;;19.97;17.97;;;12.90;99.90;;;;;;5113524;27;20508;-70
2022/10/21 03:23:39;;;;;;;19.73;17.67;;;12.90;99.90;;;;;;5109717;27;20926;-71
2022/10/21 03:26:06;;;;;;;21.43;19.03;;;12.90;99.90;;;;;;5114574;27;20496;-70
2022/10/21 03:28:32;;;;;;;20.30;18.50;;;12.90;99.90;;;;;;5115951;27;20489;-71
2022/10/21 03:30:59;;;;;;;24.43;19.57;;;12.80;99.90;;;;;;5111023;27;20465;-69
2022/10/21 03:33:26;;;;;;;20.27;18.40;;;12.80;99.90;;;;;;5112684;27;20656;-70
2022/10/21 03:35:53;;;;;;;19.63;18.07;;;12.80;99.90;;;;;;5092917;28;20830;-69
2022/10/21 03:38:22;;;;;;;23.40;19.33;;;12.80;99.90;;;;;;5114097;28;20488;-70
2022/10/21 03:40:50;;;;;;;23.20;19.37;;;12.80;99.90;;;;;;5116159;27;20469;-70
2022/10/21 03:43:17;;;;;;;21.97;19.97;;;12.70;99.90;;;;;;5114069;28;20805;-70
2022/10/21 03:45:44;;;;;;;19.67;18.27;;;12.70;99.90;;;;;;5112223;28;20473;-70
2022/10/21 03:48:11;;;;;;;28.97;18.30;;;12.70;99.90;;;;;;5115312;28;20929;-69
2022/10/21 03:50:38;;;;;;;19.67;18.03;;;12.80;99.90;;;;;;5112413;28;20824;-70
2022/10/21 03:53:05;;;;;;;19.90;17.83;;;12.80;99.90;;;;;;5099161;28;20464;-69
2022/10/21 03:55:33;;;;;;;19.87;18.43;;;12.80;99.90;;;;;;5111111;28;20456;-70
2022/10/21 03:58:00;;;;;;;20.10;18.10;;;12.80;99.90;;;;;;5110975;28;20469;-70
2022/10/21 04:00:27;;;;;;;20.50;18.70;;;12.80;99.90;;;;;;5103246;28;20465;-70
2022/10/21 04:02:54;;;;;;;23.33;19.17;;;12.80;99.90;;;;;;5098086;28;20466;-70
2022/10/21 04:05:21;;;;;;;19.43;17.37;;;12.80;99.90;;;;;;5099157;28;20481;-70
2022/10/21 04:07:47;;;;;;;20.30;18.17;;;12.80;99.90;;;;;;5102541;27;20550;-69
2022/10/21 04:10:14;;;;;;;20.47;18.60;;;12.80;99.90;;;;;;5105450;28;20525;-71
2022/10/21 04:12:42;;;;;;;19.27;17.70;;;12.90;99.90;;;;;;5107088;28;20544;-71
2022/10/21 04:15:12;;;;;;;19.03;17.83;;;12.90;99.90;;;;;;5109662;28;20465;-70
2022/10/21 04:17:40;;;;;;;20.50;18.90;;;12.90;99.90;;;;;;5112862;28;20468;-69
2022/10/21 04:20:08;;;;;;;19.73;18.30;;;12.90;99.90;;;;;;5111689;28;20464;-70
2022/10/21 04:22:35;;;;;;;19.47;17.83;;;13.00;99.90;;;;;;5112840;28;20459;-69
2022/10/21 04:25:02;;;;;;;20.17;18.57;;;13.00;99.90;;;;;;5107880;28;20498;-70
2022/10/21 04:27:29;;;;;;;18.80;17.40;;;13.00;99.90;;;;;;5105476;28;20489;-70
2022/10/21 04:29:57;;;;;;;19.20;17.67;;;13.00;99.90;;;;;;5109796;28;20453;-69
2022/10/21 04:32:25;;;;;;;18.97;17.47;;;13.00;99.90;;;;;;5113381;28;20967;-70
2022/10/21 04:34:52;;;;;;;19.50;18.00;;;13.10;99.90;;;;;;5113807;27;20871;-69
2022/10/21 04:37:19;;;;;;;18.53;17.23;;;13.10;99.90;;;;;;5115074;27;20472;-69
2022/10/21 04:39:46;;;;;;;18.27;16.87;;;13.10;99.90;;;;;;5110701;27;20457;-70
2022/10/21 04:42:13;;;;;;;19.17;17.37;;;13.10;99.90;;;;;;5111092;27;20907;-70
2022/10/21 04:44:40;;;;;;;19.70;18.20;;;13.10;99.90;;;;;;5114529;27;20457;-71
2022/10/21 04:47:08;;;;;;;24.37;19.07;;;13.20;99.90;;;;;;5113596;27;20493;-70
2022/10/21 04:49:35;;;;;;;19.47;17.30;;;13.10;99.90;;;;;;5108203;27;20771;-70
2022/10/21 04:52:02;;;;;;;18.33;17.07;;;13.10;99.90;;;;;;5108497;27;20453;-70
2022/10/21 04:54:30;;;;;;;19.63;17.90;;;13.10;99.90;;;;;;5114547;27;20460;-71
2022/10/21 04:56:57;;;;;;;19.17;17.57;;;13.10;99.90;;;;;;5114079;27;20471;-69
2022/10/21 04:59:23;;;;;;;19.10;17.30;;;13.10;99.90;;;;;;5111406;27;20903;-70
2022/10/21 05:01:51;;;;;;;18.37;17.07;;;13.20;99.90;;;;;;5113600;27;20834;-69
2022/10/21 05:04:20;;;;;;;19.33;17.23;;;13.10;99.90;;;;;;5111826;27;20461;-69
2022/10/21 05:06:47;;;;;;;19.17;17.60;;;13.10;99.90;;;;;;5111785;27;20490;-69
2022/10/21 05:09:14;;;;;;;18.00;16.70;;;13.20;99.90;;;;;;5109065;27;20457;-70
2022/10/21 05:11:41;;;;;;;18.90;16.43;;;13.20;99.90;;;;;;5114585;27;20817;-71
2022/10/21 05:14:08;;;;;;;18.13;16.83;;;13.20;99.90;;;;;;5111727;27;20480;-70
2022/10/21 05:16:34;;;;;;;18.20;16.80;;;13.20;99.90;;;;;;5115257;27;20460;-71
2022/10/21 05:19:02;;;;;;;19.37;17.73;;;13.20;99.90;;;;;;5113674;27;20461;-69
2022/10/21 05:21:30;;;;;;;19.10;17.37;;;13.20;99.90;;;;;;5108060;27;20453;-71
2022/10/21 05:23:57;;;;;;;17.47;16.10;;;13.20;99.90;;;;;;5108040;27;20456;-69
2022/10/21 05:26:24;;;;;;;19.63;17.40;;;13.20;99.90;;;;;;5103077;28;20477;-71
2022/10/21 05:28:51;;;;;;;17.77;16.33;;;13.20;99.90;;;;;;5109948;27;20850;-69
2022/10/21 05:31:17;;;;;;;19.07;17.73;;;13.30;99.90;;;;;;5109406;27;21062;-69
2022/10/21 05:33:44;;;;;;;19.27;17.50;;;13.30;99.90;;;;;;5107977;27;20825;-69
2022/10/21 05:36:12;;;;;;;19.47;18.17;;;13.30;99.90;;;;;;5113235;27;20464;-70
2022/10/21 05:38:40;;;;;;;18.93;17.37;;;13.30;99.90;;;;;;5114599;27;20556;-70
2022/10/21 05:41:09;;;;;;;18.37;16.87;;;13.30;99.90;;;;;;5114990;27;20540;-71
2022/10/21 05:43:36;;;;;;;19.63;17.73;;;13.30;99.90;;;;;;5100119;27;20467;-69
2022/10/21 05:46:03;;;;;;;18.47;17.17;;;13.30;99.90;;;;;;5111492;27;20557;-69
2022/10/21 05:48:30;;;;;;;19.17;17.43;;;13.30;99.90;;;;;;5116076;27;20459;-70
2022/10/21 05:50:57;;;;;;;18.30;17.10;;;13.20;99.90;;;;;;5107500;27;20464;-68
2022/10/21 05:53:24;;;;;;;19.13;17.70;;;13.20;99.90;;;;;;5101304;27;21043;-69
2022/10/21 05:56:00;;;;;;;19.37;17.97;;;13.20;99.90;;;;;;5111776;27;20461;-69
2022/10/21 05:58:27;;;;;;;19.40;17.60;;;13.10;99.90;;;;;;5108257;27;20464;-70
2022/10/21 06:00:54;;;;;;;19.17;17.70;;;13.20;99.90;;;;;;5113708;27;20462;-69
2022/10/21 06:03:23;;;;;;;19.73;18.00;;;13.20;99.90;;;;;;5099045;27;20466;-69
2022/10/21 06:05:50;;;;;;;20.27;18.10;;;13.20;99.90;;;;;;5111960;27;21138;-70
2022/10/21 06:08:17;;;;;;;18.73;16.80;;;13.10;99.90;;;;;;5112378;27;20457;-70
2022/10/21 06:10:45;;;;;;;19.50;17.80;;;13.10;99.90;;;;;;5111566;27;20804;-70
2022/10/21 06:13:13;;;;;;;19.53;18.27;;;13.20;99.90;;;;;;5110998;27;20955;-70
2022/10/21 06:15:40;;;;;;;21.20;19.47;;;13.30;99.90;;;;;;5108743;27;20473;-71
2022/10/21 06:18:07;;;;;;;20.13;18.73;;;13.30;99.90;;;;;;5110477;27;20461;-68
2022/10/21 06:20:34;;;;;;;21.07;19.30;;;13.30;99.90;;;;;;5099642;27;20466;-70
2022/10/21 06:23:01;;;;;;;31.23;19.93;;;13.40;99.90;;;;;;5104541;27;20838;-69
2022/10/21 06:25:28;;;;;;;20.23;18.63;;;13.40;99.90;;;;;;5103008;27;20504;-70
2022/10/21 06:27:55;;;;;;;32.13;19.00;;;13.40;99.90;;;;;;5104308;27;20991;-69
2022/10/21 06:30:24;;;;;;;18.73;17.33;;;13.50;99.90;;;;;;5089258;28;20610;-71
2022/10/21 06:32:51;;;;;;;20.37;18.47;;;13.50;99.90;;;;;;5088627;28;20524;-68
2022/10/21 06:35:17;;;;;;;18.80;17.47;;;13.50;99.90;;;;;;5088498;28;21205;-69
2022/10/21 06:37:44;;;;;;;19.50;18.00;;;13.50;99.90;;;;;;5094107;28;21068;-70
2022/10/21 06:40:12;;;;;;;21.07;19.33;;;13.50;99.90;;;;;;5091395;28;20541;-68
2022/10/21 06:42:39;;;;;;;21.63;19.67;;;13.50;99.90;;;;;;5087381;28;20503;-69
2022/10/21 06:45:06;;;;;;;20.50;18.43;;;13.60;99.90;;;;;;5085987;28;20977;-68
2022/10/21 06:47:35;;;;;;;21.53;19.67;;;13.60;99.90;;;;;;5089705;28;20539;-69
2022/10/21 06:50:02;;;;;;;20.83;19.13;;;13.70;99.90;;;;;;5092632;28;20956;-69
2022/10/21 06:52:30;;;;;;;21.27;19.13;;;13.70;99.90;;;;;;5088698;28;20972;-70
2022/10/21 06:54:56;;;;;;;21.10;19.50;;;13.80;99.90;;;;;;5091528;28;21343;-68
2022/10/21 06:57:26;;;;;;;21.17;18.67;;;13.80;99.90;;;;;;5093909;28;20837;-69
2022/10/21 06:59:53;;;;;;;19.50;17.93;;;13.90;99.90;;;;;;5089986;28;20541;-69
2022/10/21 07:02:20;;;;;;;19.07;17.40;;;14.00;99.90;;;;;;5083831;28;20914;-68
2022/10/21 07:04:48;;;;;;;18.03;16.83;;;14.00;99.90;;;;;;5087381;28;20450;-69
2022/10/21 07:07:15;;;;;;;19.23;17.33;;;14.10;99.90;;;;;;5088787;28;20851;-69
2022/10/21 07:09:42;;;;;;;21.40;17.23;;;14.10;99.90;;;;;;5087716;28;20480;-69
2022/10/21 07:12:09;;;;;;;18.27;16.63;;;14.20;99.90;;;;;;5090019;28;20454;-70
2022/10/21 07:14:36;;;;;;;18.03;16.10;;;14.20;99.90;;;;;;5087817;28;20823;-70
2022/10/21 07:17:03;;;;;;;17.77;16.20;;;14.10;99.90;;;;;;5091707;28;20457;-70
2022/10/21 07:19:30;;;;;;;20.23;16.23;;;14.20;99.90;;;;;;5087261;28;20458;-70
2022/10/21 07:22:00;;;;;;;20.57;16.80;;;14.20;99.90;;;;;;5092249;28;20465;-69
2022/10/21 07:24:27;;;;;;;18.53;17.30;;;14.20;99.90;;;;;;5088095;28;20662;-71
2022/10/21 07:26:53;;;;;;;18.60;17.10;;;14.30;99.90;;;;;;5093328;28;20492;-71
2022/10/21 07:29:21;;;;;;;19.10;16.23;;;14.30;99.90;;;;;;5103394;27;20468;-70
2022/10/21 07:31:48;;;;;;;18.40;16.40;;;14.30;99.90;;;;;;5102036;27;20475;-68
2022/10/21 07:34:15;;;;;;;19.40;17.40;;;14.30;99.90;;;;;;5105365;28;20460;-69
2022/10/21 07:36:46;;;;;;;25.70;17.03;;;14.30;99.90;;;;;;5106053;27;20469;-68
2022/10/21 07:39:17;;;;;;;18.57;16.83;;;14.30;99.90;;;;;;5114504;27;20488;-68
2022/10/21 07:41:46;;;;;;;17.07;15.93;;;14.40;99.90;;;;;;5102750;28;20457;-68
2022/10/21 07:44:13;;;;;;;17.80;16.40;;;14.40;99.90;;;;;;5101251;27;20453;-69
2022/10/21 07:46:41;;;;;;;18.60;17.10;;;14.40;99.90;;;;;;5105652;27;20860;-69
2022/10/21 07:49:08;;;;;;;20.80;17.00;;;14.40;99.90;;;;;;5103755;28;20463;-70
2022/10/21 07:51:35;;;;;;;19.40;17.80;;;14.40;99.90;;;;;;5105979;28;20461;-70
2022/10/21 07:54:02;;;;;;;18.63;17.10;;;14.50;99.90;;;;;;5108490;28;20460;-69
2022/10/21 07:56:32;;;;;;;20.27;18.10;;;14.50;99.90;;;;;;5103482;28;20482;-69
2022/10/21 07:59:01;;;;;;;19.03;16.90;;;14.60;99.90;;;;;;5107269;28;20461;-68
2022/10/21 08:01:28;;;;;;;18.93;17.30;;;14.60;99.90;;;;;;5104899;28;20452;-72
2022/10/21 08:03:55;;;;;;;18.53;17.10;;;14.60;99.90;;;;;;5105123;28;20510;-69
2022/10/21 08:06:25;;;;;;;18.07;16.40;;;14.60;99.90;;;;;;5106330;28;20606;-69
2022/10/21 08:08:52;;;;;;;17.50;16.17;;;14.70;99.90;;;;;;5107686;27;20796;-69
2022/10/21 08:11:24;;;;;;;19.00;17.27;;;14.70;99.90;;;;;;5107036;27;20469;-71
2022/10/21 08:13:53;;;;;;;19.80;17.67;;;14.70;99.90;;;;;;5092505;27;20466;-69
2022/10/21 08:16:20;;;;;;;19.37;17.60;;;14.70;99.90;;;;;;5104413;27;20469;-70
2022/10/21 08:18:47;;;;;;;19.37;17.90;;;14.70;99.90;;;;;;5109680;27;20982;-71
2022/10/21 08:21:14;;;;;;;20.80;19.23;;;14.70;99.90;;;;;;5106582;27;20472;-69
2022/10/21 08:23:41;;;;;;;21.73;19.47;;;14.70;99.90;;;;;;5103270;27;20536;-69
2022/10/21 08:26:11;;;;;;;19.90;18.30;;;14.70;99.90;;;;;;5102281;27;20702;-71
2022/10/21 08:28:38;;;;;;;19.53;17.60;;;14.80;99.90;;;;;;5104129;27;20477;-72
2022/10/21 08:31:09;;;;;;;19.67;18.20;;;14.80;99.90;;;;;;5109498;27;20457;-68
2022/10/21 08:33:37;;;;;;;19.57;17.47;;;14.80;99.90;;;;;;5105416;27;20491;-69
2022/10/21 08:36:07;;;;;;;23.20;18.60;;;14.80;99.90;;;;;;5111274;27;20469;-71
2022/10/21 08:38:35;;;;;;;19.37;17.80;;;14.80;99.90;;;;;;5107742;27;20464;-71
2022/10/21 08:41:02;;;;;;;20.20;18.23;;;14.80;99.90;;;;;;5107270;27;20452;-70
2022/10/21 08:43:33;;;;;;;20.23;17.87;;;14.80;99.90;;;;;;5112138;27;20594;-70
2022/10/21 08:46:04;;;;;;;18.90;17.50;;;14.80;99.90;;;;;;5107690;27;20972;-70
2022/10/21 08:48:39;;;;;;;26.33;18.50;;;14.90;99.90;;;;;;5107437;27;20884;-69
2022/10/21 08:51:07;;;;;;;19.73;18.03;;;14.90;99.90;;;;;;5101965;27;20835;-71
2022/10/21 08:53:39;;;;;;;21.90;19.60;;;15.00;99.90;;;;;;5106948;27;21098;-71
2022/10/21 08:56:12;;;;;;;24.63;20.93;;;15.10;99.90;;;;;;5105205;27;20445;-68
2022/10/21 08:58:39;;;;;;;20.80;18.70;;;15.20;99.90;;;;;;5110839;27;20457;-72
2022/10/21 09:01:17;;;;;;;23.27;18.70;;;15.30;99.90;;;;;;5109045;27;20552;-71
2022/10/21 09:03:53;;;;;;;20.57;18.80;;;15.30;99.90;;;;;;5108572;27;20471;-70
2022/10/21 09:06:24;;;;;;;28.40;19.33;;;15.40;99.90;;;;;;5110828;27;20528;-70
2022/10/21 09:09:07;;;;;;;20.97;19.07;;;15.40;99.90;;;;;;5108824;27;20459;-69
2022/10/21 09:11:46;;;;;;;21.47;19.50;;;15.50;99.90;;;;;;5099458;27;20800;-71
2022/10/21 09:14:42;;;;;;;20.50;18.50;;;15.60;99.90;;;;;;5097389;27;20453;-69
2022/10/21 09:17:25;;;;;;;21.90;19.10;;;15.60;99.90;;;;;;5107346;27;20939;-70
2022/10/21 09:20:02;;;;;;;21.67;19.67;;;15.70;99.90;;;;;;5106965;27;20483;-70
2022/10/21 09:22:41;;;;;;;22.07;19.70;;;15.70;99.90;;;;;;5103822;27;20441;-71
2022/10/21 09:25:19;;;;;;;22.37;19.60;;;15.70;99.90;;;;;;5110518;27;21091;-70
2022/10/21 09:27:46;;;;;;;24.83;19.23;;;15.70;99.90;;;;;;5112548;27;20648;-69
2022/10/21 09:30:16;;;;;;;21.10;18.00;;;15.80;99.90;;;;;;5110352;27;20458;-71
2022/10/21 09:32:48;;;;;;;19.87;17.90;;;15.90;99.90;;;;;;5107179;27;20518;-70
2022/10/21 09:35:22;;;;;;;21.70;19.67;;;15.90;99.90;;;;;;5113341;27;20923;-70
2022/10/21 09:37:54;;;;;;;27.00;22.20;;;15.90;99.90;;;;;;5104070;27;20461;-72
2022/10/21 09:40:23;;;;;;;22.20;20.13;;;16.10;99.90;;;;;;5097382;27;20457;-69
2022/10/21 09:42:51;;;;;;;25.87;18.60;;;16.10;99.90;;;;;;5102064;27;20460;-68
2022/10/21 09:45:31;;;;;;;20.93;19.03;;;16.20;99.90;;;;;;5105374;27;20533;-72
2022/10/21 09:48:03;;;;;;;19.47;17.50;;;16.10;99.90;;;;;;5099617;27;20496;-71
2022/10/21 09:50:33;;;;;;;19.70;17.80;;;16.00;99.90;;;;;;5107737;27;20457;-69
2022/10/21 09:53:06;;;;;;;19.43;17.40;;;16.10;99.90;;;;;;5108515;27;20831;-69
2022/10/21 09:55:33;;;;;;;19.17;17.37;;;16.00;99.90;;;;;;5100735;27;20456;-69
2022/10/21 09:58:01;;;;;;;19.10;17.50;;;16.10;99.90;;;;;;5105907;27;20461;-69
2022/10/21 10:00:43;;;;;;;19.43;17.43;;;16.10;99.90;;;;;;5100125;27;20452;-69
2022/10/21 10:03:10;;;;;;;18.83;17.20;;;16.00;99.90;;;;;;5103663;27;20469;-71
2022/10/21 10:05:42;;;;;;;22.00;16.63;;;16.00;99.90;;;;;;5105308;27;20972;-72
2022/10/21 10:08:35;;;;;;;17.90;16.60;;;15.90;99.90;;;;;;5093842;27;20706;-70
2022/10/21 10:11:05;;;;;;;17.73;16.07;;;15.90;99.90;;;;;;5097568;27;20813;-68
2022/10/21 10:13:32;;;;;;;17.10;15.50;;;15.90;99.90;;;;;;5106170;27;20477;-68
2022/10/21 10:16:21;;;;;;;28.43;16.00;;;16.00;99.90;;;;;;5103919;27;20449;-69
2022/10/21 10:18:48;;;;;;;18.67;14.90;;;16.00;99.90;;;;;;5104326;27;20465;-70
2022/10/21 10:21:18;;;;;;;16.27;14.87;;;16.00;99.90;;;;;;5112042;27;21131;-69
2022/10/21 10:23:50;;;;;;;16.10;14.50;;;16.00;99.90;;;;;;5109906;27;21019;-69
2022/10/21 10:26:29;;;;;;;19.57;14.87;;;16.10;99.90;;;;;;5107366;27;20496;-69
2022/10/21 10:29:00;;;;;;;15.37;14.17;;;16.20;99.90;;;;;;5111260;27;20492;-68
2022/10/21 10:31:31;;;;;;;14.93;13.50;;;16.30;99.90;;;;;;5107846;27;20557;-69
2022/10/21 10:34:02;;;;;;;12.73;11.53;;;16.50;99.90;;;;;;5102344;27;20452;-69
2022/10/21 10:36:34;;;;;;;12.67;10.97;;;16.60;99.90;;;;;;5107127;27;20457;-68
2022/10/21 10:39:03;;;;;;;14.50;10.60;;;16.70;99.90;;;;;;5088615;28;20564;-69
2022/10/21 10:41:36;;;;;;;11.77;10.60;;;16.80;99.90;;;;;;5107342;27;20951;-69
2022/10/21 10:44:09;;;;;;;11.37;10.37;;;16.90;99.90;;;;;;5108835;27;20875;-70
2022/10/21 10:46:38;;;;;;;10.03;9.10;;;17.00;99.90;;;;;;5102598;27;20837;-68
2022/10/21 10:49:16;;;;;;;10.37;9.30;;;17.10;99.90;;;;;;5097403;27;20493;-69
2022/10/21 10:51:47;;;;;;;10.13;9.10;;;17.30;99.90;;;;;;5105881;27;20456;-70
2022/10/21 10:54:19;;;;;;;10.10;8.80;;;17.50;99.90;;;;;;5096043;27;20467;-69
2022/10/21 10:56:51;;;;;;;8.83;8.13;;;17.70;99.90;;;;;;5100742;27;20477;-68
2022/10/21 10:59:26;;;;;;;10.53;9.73;;;17.80;99.90;;;;;;5106337;27;20445;-71
2022/10/21 11:02:00;;;;;;;10.00;9.17;;;17.90;99.90;;;;;;5108260;27;20449;-69
2022/10/21 11:04:34;;;;;;;9.33;8.63;;;18.10;99.90;;;;;;5102030;27;20765;-69
2022/10/21 11:07:14;;;;;;;10.77;9.90;;;18.50;99.90;;;;;;5105524;27;20869;-70
2022/10/21 11:09:41;;;;;;;10.83;9.93;;;18.80;99.90;;;;;;5112217;27;20466;-70
2022/10/21 11:12:19;;;;;;;10.10;9.57;;;19.10;99.90;;;;;;5105412;27;20860;-69
2022/10/21 11:14:50;;;;;;;11.03;10.20;;;19.30;99.90;;;;;;5107340;27;20468;-70
2022/10/21 11:17:20;;;;;;;11.10;10.20;;;19.60;99.90;;;;;;5103814;27;20544;-71
2022/10/21 11:19:55;;;;;;;11.27;10.30;;;19.80;99.90;;;;;;5106100;27;20460;-70
2022/10/21 11:22:33;;;;;;;11.60;10.70;;;20.10;99.90;;;;;;5101734;27;20465;-69
2022/10/21 11:25:11;;;;;;;11.93;11.27;;;20.30;99.90;;;;;;5100460;27;20548;-70
2022/10/21 11:27:56;;;;;;;12.63;11.90;;;20.40;99.90;;;;;;5104304;27;20496;-70
2022/10/21 11:30:28;;;;;;;12.67;12.07;;;20.60;99.90;;;;;;5103031;28;20473;-69
2022/10/21 11:33:08;;;;;;;13.60;12.70;;;20.90;99.90;;;;;;5102230;28;20458;-69
2022/10/21 11:35:47;;;;;;;13.10;12.40;;;21.20;99.90;;;;;;5110145;27;20470;-69
2022/10/21 11:38:47;;;;;;;14.67;13.63;;;21.70;99.90;;;;;;5107424;27;20449;-71
2022/10/21 11:41:24;;;;;;;18.57;16.93;;;21.70;99.90;;;;;;5102168;28;20972;-71
2022/10/21 11:44:02;;;;;;;17.60;16.10;;;22.10;99.90;;;;;;5106465;27;20521;-70
2022/10/21 11:46:39;;;;;;;15.87;14.47;;;22.60;99.90;;;;;;5109188;27;20479;-69
2022/10/21 11:49:18;;;;;;;14.90;14.20;;;23.50;99.90;;;;;;5105743;28;20492;-70
2022/10/21 11:51:53;;;;;;;14.97;14.17;;;23.90;99.90;;;;;;5100593;28;20938;-70
2022/10/21 11:54:43;;;;;;;14.17;13.47;;;24.60;99.90;;;;;;5091183;28;20488;-69
2022/10/21 11:57:14;;;;;;;18.63;14.23;;;24.90;99.90;;;;;;5090499;28;20823;-70
2022/10/21 11:59:52;;;;;;;15.20;14.50;;;25.40;99.90;;;;;;5098603;28;20964;-73
2022/10/21 12:02:24;;;;;;;15.50;14.70;;;25.60;99.90;;;;;;5097036;28;20518;-70
2022/10/21 12:05:01;;;;;;;15.73;14.63;;;25.60;99.90;;;;;;5109923;28;20458;-69
2022/10/21 12:07:49;;;;;;;15.50;14.70;;;25.70;99.90;;;;;;5102920;28;20484;-70
2022/10/21 12:10:29;;;;;;;14.90;14.20;;;25.70;99.90;;;;;;5103008;28;20488;-70
2022/10/21 12:13:00;;;;;;;15.20;14.43;;;25.80;99.90;;;;;;5103456;28;20823;-71
2022/10/21 12:15:31;;;;;;;14.80;14.10;;;25.90;99.90;;;;;;5107775;28;20975;-70
2022/10/21 12:18:00;;;;;;;16.17;14.53;;;25.90;99.90;;;;;;5103834;28;20451;-72
2022/10/21 12:20:28;;;;;;;14.87;14.17;;;25.80;99.90;;;;;;5103715;28;20461;-69
2022/10/21 12:23:00;;;;;;;15.90;15.00;;;25.60;99.90;;;;;;5110085;28;20518;-70
2022/10/21 12:25:38;;;;;;;15.30;14.50;;;25.70;99.90;;;;;;5108491;28;20786;-69
2022/10/21 12:28:13;;;;;;;15.40;14.60;;;25.60;99.90;;;;;;5091903;28;20487;-71
2022/10/21 12:30:49;;;;;;;15.00;14.20;;;26.10;99.90;;;;;;5103889;28;20526;-69
2022/10/21 12:33:23;;;;;;;15.10;14.40;;;25.60;99.90;;;;;;5097202;28;20468;-70
2022/10/21 12:35:53;;;;;;;15.00;14.20;;;25.10;99.90;;;;;;5106598;28;20506;-70
2022/10/21 12:38:24;;;;;;;15.17;14.37;;;24.70;99.90;;;;;;5102781;28;20840;-71
2022/10/21 12:41:28;;;;;;;15.00;14.30;;;24.50;99.90;;;;;;5103579;28;20603;-71
2022/10/21 12:44:06;;;;;;;14.80;14.10;;;24.90;99.90;;;;;;5109101;28;20465;-69
2022/10/21 12:46:38;;;;;;;15.00;14.30;;;24.70;99.90;;;;;;5103265;28;20462;-70